Time;durP1;ratioP1;P1;durP2;ratioP2;P2;SDS_P1;SDS_P2;PMS_P1;PMS_P2;Temp;Humidity;BMP_temperature;BMP_pressure;BME280_temperature;BME280_humidity;BME280_pressure;Samples;Min_cycle;Max_cycle;Signal;HPM_P1;HPM_P2
2022/02/01 00:03:16;;;;;;;51.50;17.13;;;;;;;0.95;99.37;99581.41;10378001;28;19921;-75
2022/02/01 00:08:33;;;;;;;58.17;19.27;;;;;;;0.96;98.74;99597.81;10378108;28;20046;-75
2022/02/01 00:13:52;;;;;;;42.97;14.85;;;;;;;0.82;99.25;99617.63;10393737;28;20100;-76
2022/02/01 00:39:55;;;;;;;56.47;19.30;;;;;;;0.88;99.54;99630.56;10378396;28;20050;-75
2022/02/01 00:44:57;;;;;;;45.67;18.42;;;;;;;0.83;99.37;99648.69;10378252;28;20447;-75
2022/02/01 00:49:59;;;;;;;47.95;19.48;;;;;;;0.85;99.20;99659.91;10392344;28;20048;-74
2022/02/01 00:55:00;;;;;;;41.67;17.70;;;;;;;0.84;98.85;99655.59;10376306;28;20046;-75
2022/02/01 01:00:05;;;;;;;55.50;18.33;;;;;;;0.87;97.99;99678.88;10378373;28;20076;-76
2022/02/01 01:05:07;;;;;;;68.50;18.65;;;;;;;0.92;98.77;99677.16;10377676;28;20491;-75
2022/02/01 01:10:11;;;;;;;50.40;18.13;;;;;;;1.08;96.90;99677.19;10376819;28;20050;-75
2022/02/01 01:15:20;;;;;;;32.97;16.35;;;;;;;1.05;96.01;99687.53;10375626;28;20038;-75
2022/02/01 01:57:46;;;;;;;70.60;20.70;;;;;;;0.84;97.68;99715.13;10415165;28;20442;-67
2022/02/01 02:02:48;;;;;;;63.00;20.23;;;;;;;0.74;96.67;99696.09;10412900;28;20099;-67
2022/02/01 02:07:51;;;;;;;60.28;21.50;;;;;;;0.67;97.25;99685.75;10413796;28;20045;-67
2022/02/01 02:17:59;;;;;;;72.72;22.10;;;;;;;0.74;95.44;99685.75;10414063;28;20487;-67
2022/02/01 02:23:00;;;;;;;50.25;19.67;;;;;;;0.79;94.77;99687.47;10419961;28;20091;-67
2022/02/01 02:28:02;;;;;;;66.40;20.48;;;;;;;0.72;94.39;99700.41;10422184;28;20103;-67
2022/02/01 02:33:06;;;;;;;55.45;18.42;;;;;;;0.70;94.05;99704.69;10418834;28;20050;-67
2022/02/01 02:38:14;;;;;;;59.88;17.20;;;;;;;0.85;92.99;99692.69;10420140;28;20517;-67
2022/02/01 02:48:36;;;;;;;36.17;13.88;;;;;;;0.70;94.19;99702.13;10419775;28;20107;-67
2022/02/01 02:53:38;;;;;;;50.08;14.73;;;;;;;0.49;95.80;99715.88;10421440;28;20487;-67
2022/02/01 02:58:40;;;;;;;34.83;14.50;;;;;;;0.66;95.19;99736.59;10419999;28;20053;-67
2022/02/01 03:03:42;;;;;;;29.92;12.65;;;;;;;0.92;95.04;99748.75;10421859;28;20095;-67
2022/02/01 03:08:43;;;;;;;30.27;12.98;;;;;;;0.75;95.40;99749.59;10419285;28;20440;-67
2022/02/01 03:13:53;;;;;;;42.25;14.50;;;;;;;0.78;95.89;99753.03;10419350;28;20045;-67
2022/02/01 03:24:15;;;;;;;15.52;12.98;;;;;;;0.72;95.42;99749.56;10417510;28;20076;-67
2022/02/01 03:29:16;;;;;;;26.48;14.70;;;;;;;0.71;96.41;99747.00;10418404;28;20053;-67
2022/02/01 03:34:18;;;;;;;35.03;16.15;;;;;;;0.63;96.36;99746.09;10418189;28;20041;-68
2022/02/01 03:39:20;;;;;;;30.08;16.25;;;;;;;0.86;94.88;99743.56;10418545;28;20406;-67
2022/02/01 03:44:21;;;;;;;34.55;16.30;;;;;;;0.85;93.87;99736.69;10418657;28;20087;-67
2022/02/01 03:49:23;;;;;;;29.63;18.15;;;;;;;0.80;94.14;99752.19;10418838;28;20073;-67
2022/02/01 03:54:30;;;;;;;34.40;18.17;;;;;;;0.79;93.61;99747.00;10417552;28;20037;-67
2022/02/01 03:59:31;;;;;;;28.58;18.08;;;;;;;0.91;92.84;99737.53;10417079;28;20483;-67
2022/02/01 04:04:34;;;;;;;33.33;17.80;;;;;;;0.96;92.47;99730.66;10399200;28;20503;-67
2022/02/01 04:09:35;;;;;;;40.03;19.17;;;;;;;0.87;92.99;99747.88;10415542;28;20449;-67
2022/02/01 04:14:37;;;;;;;55.40;23.52;;;;;;;0.86;93.41;99754.78;10417060;28;20052;-68
2022/02/01 04:19:39;;;;;;;56.65;23.95;;;;;;;0.95;93.64;99747.03;10414979;28;20045;-67
2022/02/01 04:24:43;;;;;;;47.50;23.92;;;;;;;0.84;93.98;99758.22;10415840;28;20392;-68
2022/02/01 04:29:51;;;;;;;49.10;24.95;;;;;;;1.02;93.04;99768.63;10416515;28;20491;-67
2022/02/01 04:34:59;;;;;;;49.42;23.55;;;;;;;0.95;92.81;99770.34;10417356;28;20542;-67
2022/02/01 04:40:02;;;;;;;42.70;25.92;;;;;;;0.86;93.31;99778.06;10416185;28;20041;-67
2022/02/01 04:45:06;;;;;;;38.72;23.85;;;;;;;0.83;93.64;99783.22;10415083;28;20053;-68
2022/02/01 04:50:14;;;;;;;43.53;24.20;;;;;;;0.84;93.99;99786.66;10418287;28;20045;-68
2022/02/01 04:55:16;;;;;;;27.88;20.67;;;;;;;1.15;90.74;99777.28;10416214;28;20045;-68
2022/02/01 05:00:27;;;;;;;30.95;16.45;;;;;;;1.06;89.74;99779.84;10415337;28;20079;-68
2022/02/01 05:05:38;;;;;;;35.30;21.35;;;;;;;0.84;91.04;99778.91;10413683;28;20438;-68
2022/02/01 05:10:41;;;;;;;32.55;19.50;;;;;;;0.91;90.03;99781.53;10416025;28;20053;-68
2022/02/01 05:15:42;;;;;;;28.90;19.63;;;;;;;1.03;89.99;99779.84;10415547;28;20041;-68
2022/02/01 05:25:57;;;;;;;28.27;17.05;;;;;;;1.13;87.90;99758.28;10416658;28;20033;-69
2022/02/01 05:31:02;;;;;;;24.88;17.92;;;;;;;1.05;88.01;99754.81;10416787;28;20053;-68
2022/02/01 05:36:06;;;;;;;24.40;16.45;;;;;;;0.98;88.83;99747.06;10415892;28;20037;-68
2022/02/01 05:41:11;;;;;;;29.15;16.38;;;;;;;1.08;88.02;99742.75;10415043;28;20049;-68
2022/02/01 05:46:16;;;;;;;23.75;16.00;;;;;;;1.12;87.11;99735.88;10415638;28;20492;-68
2022/02/01 05:51:18;;;;;;;27.02;15.20;;;;;;;0.98;87.42;99739.28;10415193;28;20052;-69
2022/02/01 05:56:20;;;;;;;21.48;13.95;;;;;;;1.09;86.68;99741.03;10423051;28;20095;-68
2022/02/01 06:01:21;;;;;;;22.45;14.88;;;;;;;1.06;87.02;99756.53;10423410;28;20495;-68
2022/02/01 06:06:24;;;;;;;23.80;14.27;;;;;;;0.91;88.14;99762.56;10426317;28;20483;-69
2022/02/01 06:11:27;;;;;;;28.17;13.93;;;;;;;1.09;86.67;99759.16;10426230;28;20159;-69
2022/02/01 06:16:29;;;;;;;16.00;13.95;;;;;;;1.07;86.34;99764.34;10423106;28;20038;-69
2022/02/01 06:21:30;;;;;;;17.17;13.15;;;;;;;1.01;85.50;99772.91;10422467;28;20049;-68
2022/02/01 06:26:34;;;;;;;17.63;13.15;;;;;;;0.84;85.66;99773.72;10420633;28;20183;-67
2022/02/01 06:31:36;;;;;;;13.57;12.18;;;;;;;1.00;84.57;99789.31;10420754;28;20045;-68
2022/02/01 06:36:38;;;;;;;12.68;11.27;;;;;;;0.90;84.65;99797.06;10422656;28;20104;-68
2022/02/01 06:41:39;;;;;;;13.25;11.85;;;;;;;0.92;84.02;99796.19;10422048;28;20041;-68
2022/02/01 06:46:40;;;;;;;13.07;11.88;;;;;;;0.94;83.91;99776.38;10422075;28;20046;-69
2022/02/01 06:51:42;;;;;;;12.52;11.15;;;;;;;0.96;83.43;99795.34;10422570;28;20492;-70
2022/02/01 06:56:44;;;;;;;13.43;12.05;;;;;;;1.00;83.69;99793.63;10422715;28;20144;-70
2022/02/01 07:01:46;;;;;;;13.48;11.82;;;;;;;0.96;85.05;99790.16;10422807;28;20049;-69
2022/02/01 07:06:47;;;;;;;18.77;14.45;;;;;;;0.82;87.58;99807.38;10422067;28;20041;-70
2022/02/01 07:11:49;;;;;;;17.52;14.30;;;;;;;0.74;88.78;99801.31;10421142;28;20404;-69
2022/02/01 07:16:51;;;;;;;21.25;15.40;;;;;;;0.68;90.98;99801.28;10421657;28;20037;-70
2022/02/01 07:21:52;;;;;;;18.85;14.88;;;;;;;0.57;92.19;99813.28;10421016;28;20050;-70
2022/02/01 07:26:58;;;;;;;23.45;16.48;;;;;;;0.60;93.52;99814.19;10419683;28;20053;-69
2022/02/01 07:31:59;;;;;;;17.20;15.20;;;;;;;0.61;93.71;99800.38;10420540;28;20084;-69
2022/02/01 07:37:01;;;;;;;19.20;15.25;;;;;;;0.43;94.95;99806.31;10420519;28;20041;-69
2022/02/01 07:42:02;;;;;;;17.35;15.35;;;;;;;0.54;95.66;99797.78;10420246;28;20041;-69
2022/02/01 07:47:10;;;;;;;24.35;14.95;;;;;;;0.55;95.00;99815.03;10435233;22;20052;-78
2022/02/01 07:52:13;;;;;;;16.67;14.65;;;;;;;0.57;95.82;99824.50;10409973;28;20136;-78
2022/02/01 07:57:15;;;;;;;14.23;12.82;;;;;;;0.69;95.23;99814.22;10428688;28;20067;-77
2022/02/01 08:02:21;;;;;;;13.63;12.32;;;;;;;0.71;95.78;99811.66;10425052;28;20048;-76
2022/02/01 08:07:42;;;;;;;13.93;11.75;;;;;;;0.91;95.63;99811.72;10405100;28;20513;-76
2022/02/01 08:18:12;;;;;;;10.85;9.90;;;;;;;0.94;95.82;99815.19;10421807;28;20045;-76
2022/02/01 08:23:13;;;;;;;10.55;9.55;;;;;;;1.08;94.51;99817.81;10423235;28;20069;-75
2022/02/01 08:28:15;;;;;;;17.05;11.30;;;;;;;1.04;95.23;99820.41;10423395;28;20053;-75
2022/02/01 08:33:17;;;;;;;17.13;10.23;;;;;;;1.31;92.58;99828.22;10389997;28;20061;-75
2022/02/01 08:38:19;;;;;;;18.77;9.70;;;;;;;1.34;92.70;99820.50;10404481;28;20045;-76
2022/02/01 08:43:21;;;;;;;21.85;9.43;;;;;;;1.46;90.64;99828.28;10403593;28;20403;-76
2022/02/01 08:48:23;;;;;;;17.88;9.18;;;;;;;1.44;90.94;99836.91;10422680;28;20041;-75
2022/02/01 08:53:25;;;;;;;23.73;8.20;;;;;;;1.58;89.22;99818.78;10422610;28;20068;-75
2022/02/01 08:58:29;;;;;;;32.47;10.25;;;;;;;1.51;89.34;99828.28;10422020;28;20483;-76
2022/02/01 09:03:32;;;;;;;18.70;8.77;;;;;;;1.57;89.74;99822.25;10420936;28;20124;-75
2022/02/01 09:08:34;;;;;;;24.25;8.57;;;;;;;1.63;88.62;99828.28;10419979;28;20037;-75
2022/02/01 09:13:36;;;;;;;16.45;8.98;;;;;;;1.70;87.41;99819.66;10400936;28;20033;-75
2022/02/01 09:18:37;;;;;;;15.73;8.48;;;;;;;1.71;87.00;99817.94;10401098;28;20084;-76
2022/02/01 09:23:39;;;;;;;18.98;7.45;;;;;;;1.71;87.75;99810.16;10401797;28;20450;-77
2022/02/01 09:28:41;;;;;;;11.32;6.68;;;;;;;1.79;86.68;99792.03;10423108;28;20059;-76
2022/02/01 09:33:43;;;;;;;20.63;6.53;;;;;;;1.96;85.27;99779.94;10409952;28;20044;-76
2022/02/01 09:38:45;;;;;;;13.63;5.68;;;;;;;1.97;85.11;99779.91;10426921;28;20351;-75
2022/02/01 09:43:47;;;;;;;12.73;5.82;;;;;;;1.97;83.64;99777.31;10428838;28;20132;-74
2022/02/01 09:48:49;;;;;;;10.80;5.30;;;;;;;2.05;83.41;99754.00;10428157;28;20053;-76
2022/02/01 09:53:51;;;;;;;14.68;5.82;;;;;;;2.10;83.52;99735.81;10448575;28;20405;-76
2022/02/01 09:58:55;;;;;;;14.75;5.03;;;;;;;2.22;83.48;99730.63;10432468;28;20065;-76
2022/02/01 10:04:06;;;;;;;15.13;4.40;;;;;;;2.26;83.37;99724.56;10358632;28;20382;-77
2022/02/01 10:09:15;;;;;;;17.52;5.00;;;;;;;2.33;82.89;99713.28;10401588;28;20053;-77
2022/02/01 10:14:25;;;;;;;14.63;4.50;;;;;;;2.28;82.65;99700.31;10408518;28;20045;-76
2022/02/01 10:19:27;;;;;;;11.05;3.55;;;;;;;2.40;82.53;99696.84;10426262;28;20049;-75
2022/02/01 10:24:31;;;;;;;12.50;4.15;;;;;;;2.42;83.11;99702.00;10426379;28;20041;-76
2022/02/01 10:29:34;;;;;;;17.92;3.28;;;;;;;2.58;82.01;99684.66;10425180;28;20044;-76
2022/02/01 10:39:37;;;;;;;11.35;2.75;;;;;;;2.64;79.43;99675.09;10423386;28;20049;-77
2022/02/01 10:44:40;;;;;;;24.48;8.38;;;;;;;2.49;80.31;99663.06;10424176;28;20043;-76
2022/02/01 10:49:43;;;;;;;37.03;15.40;;;;;;;2.57;80.59;99656.94;10423837;28;20534;-76
2022/02/01 10:54:45;;;;;;;14.55;6.13;;;;;;;2.55;79.55;99641.41;10423150;28;20517;-76
2022/02/01 10:59:47;;;;;;;16.55;4.72;;;;;;;2.52;79.53;99631.94;10422718;28;20045;-75
2022/02/01 11:04:52;;;;;;;17.33;7.22;;;;;;;2.62;80.07;99613.69;10405326;28;20060;-75
2022/02/01 11:09:54;;;;;;;10.63;3.60;;;;;;;2.88;78.58;99610.91;10424566;28;20042;-75
2022/02/01 11:14:55;;;;;;;12.07;3.05;;;;;;;2.76;77.67;99598.91;10391086;28;20049;-76
2022/02/01 11:19:58;;;;;;;17.55;7.18;;;;;;;2.83;77.29;99608.34;10406536;28;20073;-76
2022/02/01 11:25:21;;;;;;;21.48;4.63;;;;;;;2.85;77.55;99603.16;10392678;28;20050;-77
2022/02/01 11:30:24;;;;;;;18.90;6.60;;;;;;;2.84;78.00;99593.66;10422832;28;20063;-75
2022/02/01 11:35:26;;;;;;;32.13;11.55;;;;;;;2.88;78.61;99584.94;10404516;28;20101;-77
2022/02/01 11:40:48;;;;;;;27.73;15.35;;;;;;;2.91;78.55;99543.38;10421104;28;20045;-76
2022/02/01 11:46:10;;;;;;;14.95;4.35;;;;;;;2.87;78.71;99565.06;10407073;28;20041;-76
2022/02/01 11:51:13;;;;;;;14.52;2.92;;;;;;;2.92;79.51;99533.00;10403013;28;20042;-76
2022/02/01 11:56:17;;;;;;;8.90;2.65;;;;;;;2.78;79.65;99514.94;10424146;28;20065;-76
2022/02/01 12:01:31;;;;;;;9.77;2.80;;;;;;;2.80;79.98;99501.09;10424355;28;20121;-76
2022/02/01 12:06:58;;;;;;;11.50;2.20;;;;;;;2.90;77.60;99497.53;10426057;28;20037;-76
2022/02/01 12:12:02;;;;;;;26.40;10.23;;;;;;;2.98;76.12;99499.19;10427874;28;20515;-77
2022/02/01 12:17:05;;;;;;;20.25;5.97;;;;;;;3.00;76.74;99478.41;10466261;28;20037;-77
2022/02/01 12:22:36;;;;;;;15.50;5.07;;;;;;;3.10;75.45;99473.97;10468164;28;20064;-75
2022/02/01 12:27:40;;;;;;;14.77;3.38;;;;;;;2.98;75.18;99436.88;10461862;28;20045;-74
2022/02/01 12:32:50;;;;;;;10.88;2.10;;;;;;;2.96;76.14;99425.63;10463617;28;20041;-74
2022/02/01 12:38:16;;;;;;;14.27;3.45;;;;;;;2.99;74.74;99417.81;10462910;28;20049;-74
2022/02/01 12:43:23;;;;;;;11.10;2.08;;;;;;;3.07;73.42;99386.59;10446155;28;20140;-75
2022/02/01 12:48:26;;;;;;;8.10;2.25;;;;;;;3.09;74.83;99387.41;10445911;28;20135;-75
2022/02/01 12:53:39;;;;;;;10.52;1.75;;;;;;;3.11;74.11;99372.69;10464350;28;20052;-75
2022/02/01 12:58:42;;;;;;;7.30;1.55;;;;;;;3.12;73.40;99342.38;10433457;28;20056;-73
2022/02/01 13:03:44;;;;;;;9.48;2.00;;;;;;;3.18;72.88;99337.09;10467637;28;20040;-74
2022/02/01 13:14:37;;;;;;;11.32;2.20;;;;;;;3.36;71.73;99312.63;10465968;28;20099;-74
2022/02/01 13:20:06;;;;;;;7.80;1.70;;;;;;;3.41;71.97;99292.63;10466854;28;20049;-75
2022/02/01 13:25:29;;;;;;;8.77;1.98;;;;;;;3.41;71.31;99274.44;10446314;28;20102;-73
2022/02/01 13:30:31;;;;;;;5.68;2.03;;;;;;;3.34;72.51;99270.22;10464725;28;20041;-73
2022/02/01 13:35:34;;;;;;;8.65;1.80;;;;;;;3.36;72.06;99240.75;10465408;28;20041;-74
2022/02/01 13:40:36;;;;;;;6.85;2.28;;;;;;;3.19;72.13;99219.38;10446734;28;20068;-74
2022/02/01 13:45:37;;;;;;;7.68;1.98;;;;;;;3.21;72.06;99196.84;10463974;28;20045;-72
2022/02/01 13:50:39;;;;;;;12.55;1.88;;;;;;;3.10;73.92;99183.13;10464418;28;20075;-75
2022/02/01 13:55:41;;;;;;;6.07;1.58;;;;;;;3.18;74.22;99171.75;10465214;28;20110;-75
2022/02/01 14:00:47;;;;;;;6.22;1.88;;;;;;;2.91;76.26;99157.47;10447150;28;20041;-75
2022/02/01 14:06:39;;;;;;;7.05;2.05;;;;;;;2.66;79.46;99138.81;10464462;28;20064;-74
2022/02/01 14:33:26;;;;;;;5.25;2.47;;;;;;;2.46;82.89;99026.69;10481147;28;20110;-74
2022/02/01 14:38:41;;;;;;;2.00;1.60;;;;;;;2.53;81.53;98989.41;10468809;28;20048;-75
2022/02/01 14:48:53;;;;;;;4.15;1.38;;;;;;;2.44;83.40;98953.22;10410875;28;20058;-75
2022/02/01 14:53:55;;;;;;;3.15;1.70;;;;;;;2.45;83.61;98929.00;10426333;28;20483;-75
2022/02/01 15:14:59;;;;;;;2.08;0.82;;;;;;;2.40;84.91;98814.13;10425648;28;20045;-75
2022/02/01 15:20:04;;;;;;;2.50;0.80;;;;;;;2.40;85.14;98794.22;10426226;28;20045;-76
2022/02/01 15:25:06;;;;;;;2.45;0.82;;;;;;;2.44;85.15;98788.09;10426761;28;20445;-76
2022/02/01 15:30:09;;;;;;;2.92;0.85;;;;;;;2.53;85.34;98792.25;10425956;28;20096;-74
2022/02/01 15:35:16;;;;;;;;;;;;;;;2.61;84.35;98789.47;10425219;28;20041;-75
2022/02/01 15:57:08;;;;;;;1.88;0.88;;;;;;;2.89;82.29;98761.25;10464251;28;20107;-76
2022/02/01 16:07:15;;;;;;;1.60;0.77;;;;;;;2.83;82.89;98720.69;10453785;28;20383;-76
2022/02/01 16:12:39;;;;;;;1.77;0.80;;;;;;;2.89;82.25;98720.56;10455729;28;20041;-75
2022/02/01 16:17:41;;;;;;;1.13;0.68;;;;;;;2.93;82.72;98729.16;10468472;28;20041;-77
2022/02/01 16:22:44;;;;;;;0.57;0.43;;;;;;;2.89;83.01;98733.56;10469177;28;20123;-76
2022/02/01 16:27:47;;;;;;;1.42;0.80;;;;;;;2.77;85.40;98716.50;10468182;28;20045;-76
2022/02/01 16:32:49;;;;;;;1.10;0.80;;;;;;;2.59;87.62;98724.66;10466886;28;20045;-76
2022/02/01 16:37:51;;;;;;;1.35;0.80;;;;;;;2.55;87.58;98719.56;10439931;28;20040;-76
2022/02/01 16:42:56;;;;;;;1.45;1.20;;;;;;;2.50;87.76;98725.72;10413613;28;20530;-75
2022/02/01 16:48:01;;;;;;;2.80;1.25;;;;;;;2.39;89.63;98695.69;10448163;28;20045;-76
2022/02/01 16:53:15;;;;;;;0.70;0.70;;;;;;;2.28;90.65;98704.53;10467709;28;20128;-76
2022/02/01 16:58:30;;;;;;;2.35;1.30;;;;;;;2.29;90.40;98695.00;10450016;28;20061;-75
2022/02/01 17:03:33;;;;;;;2.22;0.90;;;;;;;2.27;90.92;98704.56;10452440;28;20116;-74
2022/02/01 17:08:35;;;;;;;0.90;0.63;;;;;;;2.30;91.19;98699.31;10470652;28;20184;-76
2022/02/01 17:19:13;;;;;;;1.02;1.02;;;;;;;2.20;92.45;98684.81;10447501;28;20057;-76
2022/02/01 17:24:21;;;;;;;;;;;;;;;2.18;92.23;98681.44;10440304;28;20045;-75
2022/02/01 17:29:23;;;;;;;0.73;0.70;;;;;;;2.16;91.99;98678.84;10464265;28;20232;-76
2022/02/01 17:34:25;;;;;;;0.70;0.70;;;;;;;2.19;91.75;98681.38;10464721;28;20045;-75
2022/02/01 17:39:26;;;;;;;0.57;0.50;;;;;;;2.12;92.36;98655.59;10420244;28;20057;-74
2022/02/01 17:44:29;;;;;;;0.50;0.50;;;;;;;2.08;92.89;98646.19;10426592;28;20052;-75
2022/02/01 17:49:32;;;;;;;0.52;0.50;;;;;;;2.10;93.09;98652.19;10427933;28;20081;-75
2022/02/01 17:54:34;;;;;;;0.50;0.47;;;;;;;2.05;93.12;98647.13;10432403;28;20041;-77
2022/02/01 17:59:36;;;;;;;0.40;0.40;;;;;;;2.09;92.93;98634.94;10440450;28;20116;-76
2022/02/01 18:04:37;;;;;;;0.60;0.30;;;;;;;2.12;92.83;98646.09;10450375;28;20041;-76
2022/02/01 18:09:41;;;;;;;0.40;0.40;;;;;;;2.13;93.74;98642.63;10396776;28;20510;-74
2022/02/01 18:19:50;;;;;;;0.73;0.63;;;;;;;2.09;93.61;98640.13;10471203;28;20037;-76
2022/02/01 18:24:56;;;;;;;0.50;0.50;;;;;;;2.24;93.29;98645.84;10470682;28;20056;-75
2022/02/01 18:30:00;;;;;;;1.52;0.80;;;;;;;2.40;92.60;98607.50;10447476;28;20132;-75
2022/02/01 18:35:06;;;;;;;0.80;0.80;;;;;;;2.42;92.41;98613.50;10410193;28;20037;-75
2022/02/01 18:40:09;;;;;;;1.30;1.10;;;;;;;2.50;92.37;98601.22;10426746;28;20135;-75
2022/02/01 18:45:13;;;;;;;1.10;1.00;;;;;;;2.51;92.54;98604.66;10425599;28;20033;-75
2022/02/01 18:50:26;;;;;;;1.40;1.00;;;;;;;2.61;91.92;98592.31;10426827;28;20458;-75
2022/02/01 19:16:42;;;;;;;1.20;0.73;;;;;;;3.16;90.39;98589.28;10471454;28;20041;-75
2022/02/01 19:21:45;;;;;;;0.90;0.70;;;;;;;3.18;91.76;98597.88;10449127;28;20049;-75
2022/02/01 19:26:47;;;;;;;1.50;0.80;;;;;;;3.20;92.62;98590.06;10433990;28;20108;-75
2022/02/01 19:31:51;;;;;;;1.00;0.85;;;;;;;3.29;92.18;98600.22;10445052;28;20052;-75
2022/02/01 19:36:53;;;;;;;1.52;0.93;;;;;;;3.31;92.37;98592.38;10463236;28;20124;-75
2022/02/01 19:41:58;;;;;;;1.58;0.80;;;;;;;3.26;92.84;98614.13;10445198;28;20041;-75
2022/02/01 19:47:09;;;;;;;2.42;1.08;;;;;;;3.32;93.21;98613.13;10462535;28;20102;-75
2022/02/01 19:52:11;;;;;;;4.25;1.30;;;;;;;3.52;92.68;98617.81;10463363;28;20398;-75
2022/02/01 19:57:15;;;;;;;2.55;1.00;;;;;;;3.53;93.60;98606.50;10445042;28;20060;-76
2022/02/01 20:02:17;;;;;;;2.63;1.30;;;;;;;3.71;93.29;98589.59;10444652;28;20057;-75
2022/02/01 20:07:27;;;;;;;2.55;1.30;;;;;;;3.69;93.09;98571.44;10462969;28;20049;-75
2022/02/01 20:12:28;;;;;;;1.08;0.80;;;;;;;4.00;91.58;98570.59;10461717;28;20399;-77
2022/02/01 20:17:30;;;;;;;2.30;1.05;;;;;;;4.04;91.82;98580.84;10463089;28;20045;-75
2022/02/01 20:22:35;;;;;;;3.65;1.10;;;;;;;4.24;91.10;98582.84;10462482;28;20048;-75
2022/02/01 20:27:38;;;;;;;1.95;0.90;;;;;;;4.49;90.32;98589.94;10458011;28;20144;-75
2022/02/01 20:32:41;;;;;;;2.55;0.95;;;;;;;4.38;90.91;98571.19;10409304;28;20145;-75
2022/02/01 20:37:43;;;;;;;1.67;1.13;;;;;;;4.47;90.42;98569.19;10443898;28;20567;-75
2022/02/01 20:42:45;;;;;;;1.55;0.90;;;;;;;4.30;92.39;98584.44;10444606;28;20124;-76
2022/02/01 20:47:47;;;;;;;1.98;0.90;;;;;;;4.42;91.47;98586.66;10443327;28;20060;-75
2022/02/01 20:52:48;;;;;;;2.72;1.20;;;;;;;4.38;92.09;98590.25;10443720;28;20051;-74
2022/02/01 20:57:50;;;;;;;3.90;1.20;;;;;;;4.26;93.57;98604.50;10443328;28;20084;-75
2022/02/01 21:02:52;;;;;;;3.67;1.25;;;;;;;4.37;92.12;98601.56;10427019;28;20049;-75
2022/02/01 21:07:56;;;;;;;1.70;0.98;;;;;;;4.42;92.08;98643.06;10460566;28;20114;-74
2022/02/01 21:12:58;;;;;;;2.08;1.10;;;;;;;4.32;94.07;98618.22;10442426;28;20064;-75
2022/02/01 21:17:59;;;;;;;2.22;0.98;;;;;;;4.24;93.98;98623.63;10459703;28;20049;-75
2022/02/01 21:23:01;;;;;;;1.02;0.70;;;;;;;4.16;94.56;98621.28;10459763;28;20041;-75
2022/02/01 21:28:03;;;;;;;2.17;0.90;;;;;;;4.34;93.26;98630.28;10459588;28;20418;-75
2022/02/01 21:33:05;;;;;;;2.42;1.17;;;;;;;4.36;92.79;98641.50;10442451;28;20060;-75
2022/02/01 21:38:07;;;;;;;3.33;1.00;;;;;;;4.51;92.39;98632.38;10424678;28;20055;-75
2022/02/01 21:43:09;;;;;;;3.17;0.82;;;;;;;4.53;91.07;98626.25;10460345;28;20045;-74
2022/02/01 21:48:11;;;;;;;4.10;1.00;;;;;;;4.60;89.72;98623.44;10459082;28;20049;-74
2022/02/01 21:53:12;;;;;;;3.17;0.70;;;;;;;4.63;88.58;98629.41;10458310;28;20048;-75
2022/02/01 21:58:14;;;;;;;5.93;1.20;;;;;;;4.33;91.37;98610.34;10439962;28;20458;-74
2022/02/01 22:03:15;;;;;;;1.90;0.70;;;;;;;4.54;91.01;98617.53;10439781;28;20052;-75
2022/02/01 22:08:18;;;;;;;3.00;0.90;;;;;;;4.52;91.37;98606.31;10441033;28;20045;-74
2022/02/01 22:13:19;;;;;;;4.13;1.00;;;;;;;4.51;91.44;98620.22;10441706;28;20470;-74
2022/02/01 22:18:21;;;;;;;5.95;1.55;;;;;;;4.78;87.95;98639.38;10442599;28;20087;-75
2022/02/01 22:23:22;;;;;;;8.27;1.60;;;;;;;4.84;87.86;98653.94;10442518;28;20195;-74
2022/02/01 22:28:25;;;;;;;7.60;2.90;;;;;;;4.86;87.59;98643.47;10459612;28;20041;-75
2022/02/01 22:33:27;;;;;;;7.57;2.38;;;;;;;4.73;88.51;98646.44;10458739;28;20391;-74
2022/02/01 22:38:28;;;;;;;10.88;2.33;;;;;;;4.86;87.07;98639.13;10448781;28;20041;-75
2022/02/01 22:43:30;;;;;;;18.33;3.80;;;;;;;4.85;87.20;98639.19;10466666;28;20107;-74
2022/02/01 22:48:31;;;;;;;17.95;3.95;;;;;;;4.79;86.95;98622.84;10430129;28;20064;-75
2022/02/01 22:53:33;;;;;;;19.92;3.58;;;;;;;4.82;87.19;98642.72;10446450;28;20107;-74
2022/02/01 22:58:35;;;;;;;16.40;4.15;;;;;;;4.89;85.71;98626.00;10446079;28;20143;-74
2022/02/01 23:03:38;;;;;;;19.20;3.22;;;;;;;4.94;84.17;98629.31;10464289;28;20053;-74
2022/02/01 23:08:57;;;;;;;14.85;3.08;;;;;;;4.88;84.19;98634.72;10466520;28;20037;-74
2022/02/01 23:19:20;;;;;;;14.07;2.88;;;;;;;4.95;81.92;98651.84;10464805;28;20048;-75
2022/02/01 23:24:21;;;;;;;10.23;2.38;;;;;;;4.60;83.14;98667.69;10446529;28;20053;-75
2022/02/01 23:29:25;;;;;;;4.93;1.38;;;;;;;4.41;83.33;98656.97;10464568;28;20037;-75
2022/02/01 23:34:44;;;;;;;3.30;1.05;;;;;;;4.39;82.59;98651.81;10448148;28;20045;-75
2022/02/01 23:40:24;;;;;;;1.30;0.50;;;;;;;4.32;83.28;98672.84;10464251;28;20465;-75
2022/02/01 23:50:29;;;;;;;4.93;0.70;;;;;;;4.01;86.10;98669.34;10464537;28;20413;-74
2022/02/01 23:55:37;;;;;;;7.05;0.77;;;;;;;4.10;86.07;98676.03;10462990;28;20041;-75
